createdAt,value
2023-03-25T00:02:11.292Z,10.12
2023-03-25T00:04:48.476Z,10.13
2023-03-25T00:07:35.829Z,10.09
2023-03-25T00:10:08.199Z,10.05
2023-03-25T00:12:41.937Z,10.03
2023-03-25T00:15:15.607Z,9.97
2023-03-25T00:17:53.554Z,9.95
2023-03-25T00:26:33.973Z,9.90
2023-03-25T00:29:03.543Z,9.88
2023-03-25T00:31:36.158Z,9.84
2023-03-25T00:34:15.761Z,9.78
2023-03-25T00:36:49.206Z,9.75
2023-03-25T00:39:18.402Z,9.69
2023-03-25T00:42:09.712Z,9.70
2023-03-25T00:44:44.445Z,9.71
2023-03-25T00:50:26.329Z,9.72
2023-03-25T00:54:05.669Z,9.79
2023-03-25T00:57:09.298Z,9.73
2023-03-25T00:59:41.605Z,9.72
2023-03-25T01:03:22.064Z,9.68
2023-03-25T01:17:52.179Z,9.88
2023-03-25T01:27:31.539Z,9.69
2023-03-25T01:40:48.681Z,9.38
2023-03-25T01:46:27.024Z,9.28
2023-03-25T01:49:17.239Z,9.21
2023-03-25T01:52:40.452Z,9.24
2023-03-25T09:01:26.590Z,24.10
2023-03-25T09:04:00.129Z,24.43
2023-03-25T09:06:48.064Z,24.66
2023-03-25T09:10:59.517Z,24.84
2023-03-25T09:45:31.279Z,23.72
2023-03-25T09:48:45.354Z,23.92
2023-03-25T09:51:17.652Z,24.07
2023-03-25T09:54:16.870Z,24.25
2023-03-25T09:56:47.650Z,24.45
2023-03-25T09:59:20.343Z,24.63
2023-03-25T10:02:04.583Z,24.69
2023-03-25T10:05:00.482Z,24.49
2023-03-25T10:08:13.063Z,24.52
2023-03-25T10:11:03.262Z,24.60
2023-03-25T10:14:46.399Z,24.51
2023-03-25T10:18:40.488Z,24.45
2023-03-25T10:24:46.012Z,24.73
2023-03-25T10:27:37.018Z,24.75
2023-03-25T10:30:27.543Z,24.79
2023-03-25T10:33:01.844Z,24.75
2023-03-25T10:40:40.511Z,24.23
2023-03-25T10:43:46.403Z,23.83
2023-03-25T10:47:06.900Z,23.60
2023-03-25T10:49:37.043Z,23.36
2023-03-25T10:56:56.547Z,22.83
2023-03-25T10:59:58.634Z,22.82
2023-03-25T11:03:21.884Z,22.93
2023-03-25T11:06:00.394Z,22.88
2023-03-25T11:08:52.880Z,22.83
2023-03-25T11:11:39.574Z,22.66
2023-03-25T11:14:38.525Z,22.19
2023-03-25T11:17:45.911Z,21.64
2023-03-25T11:24:23.847Z,21.88
2023-03-25T11:26:57.958Z,22.06
2023-03-25T11:29:30.832Z,22.09
2023-03-25T11:32:38.748Z,21.76
2023-03-25T11:44:52.063Z,20.14
2023-03-25T12:00:18.558Z,20.46
2023-03-25T12:03:33.206Z,20.36
2023-03-25T12:06:59.612Z,20.11
2023-03-25T14:46:28.678Z,15.86
2023-03-25T14:56:52.722Z,15.69
2023-03-25T15:18:02.099Z,15.67
2023-03-25T15:25:02.558Z,15.38
2023-03-25T15:28:19.557Z,15.24
2023-03-25T15:31:21.132Z,15.10
2023-03-25T15:34:09.033Z,14.98
2023-03-25T15:37:43.144Z,14.88
2023-03-25T15:40:41.033Z,14.80
2023-03-25T15:43:59.654Z,14.73
2023-03-25T15:47:51.875Z,14.59
2023-03-25T15:51:12.134Z,14.47
2023-03-25T15:54:09.217Z,14.38
2023-03-25T15:56:48.594Z,14.30
2023-03-25T15:59:53.638Z,14.27
2023-03-25T21:22:09.802Z,9.12
2023-03-25T21:45:14.529Z,9.07
2023-03-25T21:48:10.630Z,9.12
2023-03-25T21:50:59.171Z,9.16
2023-03-25T21:54:14.005Z,9.19
2023-03-25T22:00:18.349Z,9.28
2023-03-25T22:10:17.280Z,9.30
2023-03-25T22:13:28.469Z,9.28
2023-03-25T22:19:47.077Z,9.21
2023-03-25T22:22:46.235Z,9.14
2023-03-25T22:25:35.302Z,9.11
2023-03-25T22:29:32.826Z,9.10
2023-03-25T22:32:10.540Z,9.07
2023-03-25T22:34:43.763Z,8.99
2023-03-25T22:37:22.366Z,8.98
2023-03-25T22:39:54.889Z,8.97
2023-03-25T22:49:05.895Z,8.92
2023-03-25T22:51:48.572Z,8.91
2023-03-25T22:54:32.162Z,8.91
2023-03-25T22:57:07.837Z,8.88
2023-03-25T22:59:39.044Z,8.87
2023-03-25T23:02:25.804Z,8.84
2023-03-25T23:12:06.182Z,8.80
2023-03-25T23:18:45.790Z,8.74
2023-03-25T23:25:19.255Z,8.66
2023-03-25T23:28:21.246Z,8.62
2023-03-25T23:31:40.687Z,8.62
2023-03-25T23:38:11.679Z,8.62
2023-03-25T23:41:32.186Z,8.63
2023-03-25T23:44:04.127Z,8.61
2023-03-25T23:46:47.829Z,8.57
2023-03-25T23:49:27.692Z,8.61
2023-03-25T23:51:59.839Z,8.61
2023-03-25T23:54:29.757Z,8.65
